Terminal Aerodrome Forecast
Issued by NWS Wilmington, OH

Current Version | Previous Version | Graphics & Text | Print | Product List | Glossary On
Versions: 1 2 3 4 5 6 7 8 9 10 11 12 13 14 15 16 17 18 19 20 21 22 23 24 25 26
028
FTUS41 KILN 130536
TAFCVG
TAF
KCVG 130536Z 1306/1412 32010KT P6SM SCT015 BKN050
      TEMPO 1306/1310 -SHSN
     FM131700 30008KT P6SM BKN025
     FM132200 VRB03KT P6SM SCT250=

USA.gov is the U.S. government's official web portal to all federal, state and local government web resources and services.